sensor_id;sensor_type;location;lat;lon;timestamp;P1;durP1;ratioP1;P2;durP2;ratioP2
70733;SDS011;58320;48.804;9.252;2023-06-04T00:00:48;10.50;;;6.10;;
70733;SDS011;58320;48.804;9.252;2023-06-04T00:03:14;10.25;;;6.50;;
70733;SDS011;58320;48.804;9.252;2023-06-04T00:05:39;9.90;;;6.53;;
70733;SDS011;58320;48.804;9.252;2023-06-04T00:08:05;12.90;;;6.68;;
70733;SDS011;58320;48.804;9.252;2023-06-04T00:10:31;10.43;;;6.97;;
70733;SDS011;58320;48.804;9.252;2023-06-04T00:12:58;8.23;;;5.85;;
70733;SDS011;58320;48.804;9.252;2023-06-04T00:15:25;10.82;;;6.63;;
70733;SDS011;58320;48.804;9.252;2023-06-04T00:17:51;13.85;;;6.82;;
70733;SDS011;58320;48.804;9.252;2023-06-04T00:20:17;11.77;;;6.25;;
70733;SDS011;58320;48.804;9.252;2023-06-04T00:22:43;10.53;;;6.07;;
70733;SDS011;58320;48.804;9.252;2023-06-04T00:25:09;10.38;;;6.60;;
70733;SDS011;58320;48.804;9.252;2023-06-04T00:27:35;10.38;;;5.97;;
70733;SDS011;58320;48.804;9.252;2023-06-04T00:30:01;11.20;;;5.97;;
70733;SDS011;58320;48.804;9.252;2023-06-04T00:32:28;12.18;;;6.20;;
70733;SDS011;58320;48.804;9.252;2023-06-04T00:34:54;16.70;;;6.07;;
70733;SDS011;58320;48.804;9.252;2023-06-04T00:37:23;9.68;;;6.22;;
70733;SDS011;58320;48.804;9.252;2023-06-04T00:39:52;9.48;;;6.43;;
70733;SDS011;58320;48.804;9.252;2023-06-04T00:42:18;9.90;;;5.68;;
70733;SDS011;58320;48.804;9.252;2023-06-04T00:44:44;8.73;;;5.80;;
70733;SDS011;58320;48.804;9.252;2023-06-04T00:47:14;10.10;;;6.20;;
70733;SDS011;58320;48.804;9.252;2023-06-04T00:49:41;9.18;;;6.07;;
70733;SDS011;58320;48.804;9.252;2023-06-04T00:52:10;7.57;;;5.03;;
70733;SDS011;58320;48.804;9.252;2023-06-04T00:54:40;8.20;;;5.40;;
70733;SDS011;58320;48.804;9.252;2023-06-04T00:57:06;10.40;;;5.83;;
70733;SDS011;58320;48.804;9.252;2023-06-04T00:59:33;9.85;;;5.85;;
70733;SDS011;58320;48.804;9.252;2023-06-04T01:02:03;10.18;;;5.80;;
70733;SDS011;58320;48.804;9.252;2023-06-04T01:07:45;9.87;;;6.13;;
70733;SDS011;58320;48.804;9.252;2023-06-04T01:10:15;9.35;;;5.45;;
70733;SDS011;58320;48.804;9.252;2023-06-04T01:12:42;11.75;;;5.78;;
70733;SDS011;58320;48.804;9.252;2023-06-04T01:15:09;9.65;;;5.88;;
70733;SDS011;58320;48.804;9.252;2023-06-04T01:17:46;10.13;;;5.57;;
70733;SDS011;58320;48.804;9.252;2023-06-04T01:20:52;8.00;;;5.53;;
70733;SDS011;58320;48.804;9.252;2023-06-04T01:26:26;9.65;;;6.60;;
70733;SDS011;58320;48.804;9.252;2023-06-04T01:28:56;8.82;;;5.50;;
70733;SDS011;58320;48.804;9.252;2023-06-04T01:31:26;8.90;;;5.97;;
70733;SDS011;58320;48.804;9.252;2023-06-04T01:33:53;9.60;;;5.93;;
70733;SDS011;58320;48.804;9.252;2023-06-04T01:36:22;9.48;;;5.95;;
70733;SDS011;58320;48.804;9.252;2023-06-04T01:38:49;9.27;;;5.65;;
70733;SDS011;58320;48.804;9.252;2023-06-04T01:41:15;9.63;;;5.53;;
70733;SDS011;58320;48.804;9.252;2023-06-04T01:43:41;8.70;;;6.40;;
70733;SDS011;58320;48.804;9.252;2023-06-04T01:46:07;8.40;;;5.10;;
70733;SDS011;58320;48.804;9.252;2023-06-04T01:48:33;9.75;;;5.82;;
70733;SDS011;58320;48.804;9.252;2023-06-04T01:50:58;9.40;;;5.63;;
70733;SDS011;58320;48.804;9.252;2023-06-04T01:53:25;8.60;;;5.93;;
70733;SDS011;58320;48.804;9.252;2023-06-04T01:55:51;10.15;;;6.10;;
70733;SDS011;58320;48.804;9.252;2023-06-04T01:58:17;9.65;;;5.63;;
70733;SDS011;58320;48.804;9.252;2023-06-04T02:00:48;13.53;;;6.47;;
70733;SDS011;58320;48.804;9.252;2023-06-04T02:03:15;8.88;;;5.82;;
70733;SDS011;58320;48.804;9.252;2023-06-04T02:05:41;11.43;;;6.38;;
70733;SDS011;58320;48.804;9.252;2023-06-04T02:08:09;8.73;;;6.05;;
70733;SDS011;58320;48.804;9.252;2023-06-04T02:10:36;10.38;;;6.32;;
70733;SDS011;58320;48.804;9.252;2023-06-04T02:13:02;9.27;;;5.50;;
70733;SDS011;58320;48.804;9.252;2023-06-04T02:15:29;9.52;;;6.07;;
70733;SDS011;58320;48.804;9.252;2023-06-04T02:17:57;8.65;;;5.32;;
70733;SDS011;58320;48.804;9.252;2023-06-04T02:20:40;10.15;;;5.43;;
70733;SDS011;58320;48.804;9.252;2023-06-04T02:23:07;11.73;;;5.20;;
70733;SDS011;58320;48.804;9.252;2023-06-04T02:25:33;10.57;;;5.30;;
70733;SDS011;58320;48.804;9.252;2023-06-04T02:27:59;8.77;;;5.50;;
70733;SDS011;58320;48.804;9.252;2023-06-04T02:30:24;10.00;;;5.68;;
70733;SDS011;58320;48.804;9.252;2023-06-04T02:32:50;9.50;;;5.80;;
70733;SDS011;58320;48.804;9.252;2023-06-04T02:35:16;12.53;;;5.80;;
70733;SDS011;58320;48.804;9.252;2023-06-04T02:37:43;8.02;;;5.47;;
70733;SDS011;58320;48.804;9.252;2023-06-04T02:40:09;8.50;;;5.10;;
70733;SDS011;58320;48.804;9.252;2023-06-04T02:42:35;8.07;;;4.95;;
70733;SDS011;58320;48.804;9.252;2023-06-04T02:45:01;7.33;;;4.60;;
70733;SDS011;58320;48.804;9.252;2023-06-04T02:47:27;8.00;;;4.90;;
70733;SDS011;58320;48.804;9.252;2023-06-04T02:49:53;7.93;;;4.63;;
70733;SDS011;58320;48.804;9.252;2023-06-04T02:52:18;8.45;;;4.82;;
70733;SDS011;58320;48.804;9.252;2023-06-04T02:54:46;7.93;;;4.22;;
70733;SDS011;58320;48.804;9.252;2023-06-04T02:57:11;8.03;;;4.47;;
70733;SDS011;58320;48.804;9.252;2023-06-04T02:59:37;8.10;;;4.60;;
70733;SDS011;58320;48.804;9.252;2023-06-04T03:02:03;8.00;;;4.60;;
70733;SDS011;58320;48.804;9.252;2023-06-04T03:04:29;8.15;;;4.57;;
70733;SDS011;58320;48.804;9.252;2023-06-04T03:07:02;10.23;;;4.40;;
70733;SDS011;58320;48.804;9.252;2023-06-04T03:09:32;8.32;;;4.13;;
70733;SDS011;58320;48.804;9.252;2023-06-04T03:12:02;8.68;;;4.57;;
70733;SDS011;58320;48.804;9.252;2023-06-04T03:14:29;9.50;;;4.93;;
70733;SDS011;58320;48.804;9.252;2023-06-04T03:16:59;10.70;;;4.60;;
70733;SDS011;58320;48.804;9.252;2023-06-04T03:19:38;7.45;;;4.20;;
70733;SDS011;58320;48.804;9.252;2023-06-04T03:22:07;5.97;;;3.80;;
70733;SDS011;58320;48.804;9.252;2023-06-04T03:24:38;5.75;;;3.33;;
70733;SDS011;58320;48.804;9.252;2023-06-04T03:27:05;8.63;;;3.30;;
70733;SDS011;58320;48.804;9.252;2023-06-04T03:29:33;6.80;;;3.85;;
70733;SDS011;58320;48.804;9.252;2023-06-04T03:32:00;7.15;;;3.50;;
70733;SDS011;58320;48.804;9.252;2023-06-04T03:34:26;6.03;;;3.25;;
70733;SDS011;58320;48.804;9.252;2023-06-04T03:36:55;6.45;;;3.53;;
70733;SDS011;58320;48.804;9.252;2023-06-04T03:39:22;5.77;;;3.20;;
70733;SDS011;58320;48.804;9.252;2023-06-04T03:41:48;9.80;;;3.85;;
70733;SDS011;58320;48.804;9.252;2023-06-04T03:44:17;6.05;;;3.58;;
70733;SDS011;58320;48.804;9.252;2023-06-04T03:46:44;10.40;;;3.55;;
70733;SDS011;58320;48.804;9.252;2023-06-04T03:49:11;6.70;;;3.10;;
70733;SDS011;58320;48.804;9.252;2023-06-04T03:51:38;7.03;;;3.65;;
70733;SDS011;58320;48.804;9.252;2023-06-04T03:54:05;5.68;;;3.17;;
70733;SDS011;58320;48.804;9.252;2023-06-04T03:56:31;5.72;;;3.08;;
70733;SDS011;58320;48.804;9.252;2023-06-04T03:58:57;6.03;;;3.10;;
70733;SDS011;58320;48.804;9.252;2023-06-04T04:01:23;7.20;;;3.50;;
70733;SDS011;58320;48.804;9.252;2023-06-04T04:03:50;6.15;;;3.20;;
70733;SDS011;58320;48.804;9.252;2023-06-04T04:06:17;6.28;;;2.72;;
70733;SDS011;58320;48.804;9.252;2023-06-04T04:08:43;7.25;;;3.17;;
70733;SDS011;58320;48.804;9.252;2023-06-04T04:11:12;8.77;;;2.90;;
70733;SDS011;58320;48.804;9.252;2023-06-04T04:13:39;4.85;;;3.05;;
70733;SDS011;58320;48.804;9.252;2023-06-04T04:16:05;4.97;;;2.90;;
70733;SDS011;58320;48.804;9.252;2023-06-04T04:18:34;6.97;;;3.10;;
70733;SDS011;58320;48.804;9.252;2023-06-04T04:21:02;6.20;;;3.27;;
70733;SDS011;58320;48.804;9.252;2023-06-04T04:23:29;5.10;;;3.00;;
70733;SDS011;58320;48.804;9.252;2023-06-04T04:25:56;5.80;;;3.15;;
70733;SDS011;58320;48.804;9.252;2023-06-04T04:28:27;5.43;;;2.75;;
70733;SDS011;58320;48.804;9.252;2023-06-04T04:30:54;4.93;;;3.17;;
70733;SDS011;58320;48.804;9.252;2023-06-04T04:33:24;7.73;;;2.90;;
70733;SDS011;58320;48.804;9.252;2023-06-04T04:35:50;6.70;;;3.08;;
70733;SDS011;58320;48.804;9.252;2023-06-04T04:38:20;4.88;;;2.60;;
70733;SDS011;58320;48.804;9.252;2023-06-04T04:40:48;5.68;;;3.05;;
70733;SDS011;58320;48.804;9.252;2023-06-04T04:43:17;5.95;;;3.10;;
70733;SDS011;58320;48.804;9.252;2023-06-04T04:45:54;5.73;;;3.37;;
70733;SDS011;58320;48.804;9.252;2023-06-04T04:48:20;5.22;;;3.17;;
70733;SDS011;58320;48.804;9.252;2023-06-04T04:50:45;6.10;;;3.67;;
70733;SDS011;58320;48.804;9.252;2023-06-04T04:53:11;8.68;;;4.07;;
70733;SDS011;58320;48.804;9.252;2023-06-04T04:55:37;6.33;;;4.10;;
70733;SDS011;58320;48.804;9.252;2023-06-04T04:58:02;7.22;;;3.75;;
70733;SDS011;58320;48.804;9.252;2023-06-04T05:00:28;7.60;;;4.10;;
70733;SDS011;58320;48.804;9.252;2023-06-04T05:02:55;7.00;;;4.13;;
70733;SDS011;58320;48.804;9.252;2023-06-04T05:05:21;7.88;;;3.95;;
70733;SDS011;58320;48.804;9.252;2023-06-04T05:07:46;6.87;;;4.30;;
70733;SDS011;58320;48.804;9.252;2023-06-04T05:10:12;9.27;;;4.37;;
70733;SDS011;58320;48.804;9.252;2023-06-04T05:12:38;6.85;;;3.88;;
70733;SDS011;58320;48.804;9.252;2023-06-04T05:15:04;7.18;;;4.00;;
70733;SDS011;58320;48.804;9.252;2023-06-04T05:17:30;6.63;;;3.70;;
70733;SDS011;58320;48.804;9.252;2023-06-04T05:19:56;6.22;;;3.50;;
70733;SDS011;58320;48.804;9.252;2023-06-04T05:22:27;5.72;;;3.58;;
70733;SDS011;58320;48.804;9.252;2023-06-04T05:24:53;7.70;;;3.50;;
70733;SDS011;58320;48.804;9.252;2023-06-04T05:27:20;5.65;;;3.55;;
70733;SDS011;58320;48.804;9.252;2023-06-04T05:29:47;6.28;;;3.67;;
70733;SDS011;58320;48.804;9.252;2023-06-04T05:32:13;4.93;;;2.80;;
70733;SDS011;58320;48.804;9.252;2023-06-04T05:34:38;7.30;;;3.23;;
70733;SDS011;58320;48.804;9.252;2023-06-04T05:37:04;4.72;;;2.63;;
70733;SDS011;58320;48.804;9.252;2023-06-04T05:39:33;5.88;;;2.90;;
70733;SDS011;58320;48.804;9.252;2023-06-04T05:41:59;6.18;;;2.75;;
70733;SDS011;58320;48.804;9.252;2023-06-04T05:44:25;7.33;;;3.13;;
70733;SDS011;58320;48.804;9.252;2023-06-04T05:46:51;6.05;;;2.50;;
70733;SDS011;58320;48.804;9.252;2023-06-04T05:49:17;5.38;;;2.70;;
70733;SDS011;58320;48.804;9.252;2023-06-04T05:51:42;5.23;;;2.00;;
70733;SDS011;58320;48.804;9.252;2023-06-04T05:54:08;4.90;;;2.30;;
70733;SDS011;58320;48.804;9.252;2023-06-04T05:56:34;4.40;;;2.30;;
70733;SDS011;58320;48.804;9.252;2023-06-04T05:58:59;4.90;;;2.30;;
70733;SDS011;58320;48.804;9.252;2023-06-04T06:01:25;3.73;;;1.90;;
70733;SDS011;58320;48.804;9.252;2023-06-04T06:03:51;4.78;;;2.08;;
70733;SDS011;58320;48.804;9.252;2023-06-04T06:06:17;4.25;;;2.10;;
70733;SDS011;58320;48.804;9.252;2023-06-04T06:08:43;5.47;;;2.37;;
70733;SDS011;58320;48.804;9.252;2023-06-04T06:11:09;4.55;;;2.22;;
70733;SDS011;58320;48.804;9.252;2023-06-04T06:13:35;4.45;;;2.30;;
70733;SDS011;58320;48.804;9.252;2023-06-04T06:16:01;4.60;;;2.27;;
70733;SDS011;58320;48.804;9.252;2023-06-04T06:18:27;5.05;;;2.40;;
70733;SDS011;58320;48.804;9.252;2023-06-04T06:20:52;6.22;;;2.10;;
70733;SDS011;58320;48.804;9.252;2023-06-04T06:23:18;4.83;;;2.07;;
70733;SDS011;58320;48.804;9.252;2023-06-04T06:25:46;4.10;;;2.05;;
70733;SDS011;58320;48.804;9.252;2023-06-04T06:28:14;4.85;;;1.80;;
70733;SDS011;58320;48.804;9.252;2023-06-04T06:30:40;3.90;;;2.17;;
70733;SDS011;58320;48.804;9.252;2023-06-04T06:33:06;5.20;;;2.27;;
70733;SDS011;58320;48.804;9.252;2023-06-04T06:35:33;4.22;;;2.22;;
70733;SDS011;58320;48.804;9.252;2023-06-04T06:37:58;4.88;;;2.50;;
70733;SDS011;58320;48.804;9.252;2023-06-04T06:40:24;3.93;;;2.30;;
70733;SDS011;58320;48.804;9.252;2023-06-04T06:42:50;3.80;;;2.00;;
70733;SDS011;58320;48.804;9.252;2023-06-04T06:45:17;4.60;;;2.03;;
70733;SDS011;58320;48.804;9.252;2023-06-04T06:47:44;3.78;;;2.10;;
70733;SDS011;58320;48.804;9.252;2023-06-04T06:50:10;9.75;;;2.05;;
70733;SDS011;58320;48.804;9.252;2023-06-04T06:52:36;4.63;;;2.10;;
70733;SDS011;58320;48.804;9.252;2023-06-04T06:55:03;5.05;;;2.10;;
70733;SDS011;58320;48.804;9.252;2023-06-04T06:57:30;4.63;;;1.90;;
70733;SDS011;58320;48.804;9.252;2023-06-04T06:59:56;5.17;;;1.97;;
70733;SDS011;58320;48.804;9.252;2023-06-04T07:02:22;3.85;;;2.03;;
70733;SDS011;58320;48.804;9.252;2023-06-04T07:04:47;9.07;;;2.60;;
70733;SDS011;58320;48.804;9.252;2023-06-04T07:07:14;4.50;;;2.28;;
70733;SDS011;58320;48.804;9.252;2023-06-04T07:09:39;5.03;;;2.20;;
70733;SDS011;58320;48.804;9.252;2023-06-04T07:12:05;5.35;;;2.15;;
70733;SDS011;58320;48.804;9.252;2023-06-04T07:14:31;4.93;;;2.13;;
70733;SDS011;58320;48.804;9.252;2023-06-04T07:16:57;7.90;;;2.10;;
70733;SDS011;58320;48.804;9.252;2023-06-04T07:19:23;4.30;;;2.00;;
70733;SDS011;58320;48.804;9.252;2023-06-04T07:21:49;5.25;;;1.90;;
70733;SDS011;58320;48.804;9.252;2023-06-04T07:24:15;3.80;;;1.97;;
70733;SDS011;58320;48.804;9.252;2023-06-04T07:26:41;4.55;;;2.15;;
70733;SDS011;58320;48.804;9.252;2023-06-04T07:29:07;7.05;;;2.25;;
70733;SDS011;58320;48.804;9.252;2023-06-04T07:31:32;4.10;;;2.20;;
70733;SDS011;58320;48.804;9.252;2023-06-04T07:33:58;5.72;;;2.35;;
70733;SDS011;58320;48.804;9.252;2023-06-04T07:36:24;4.33;;;2.47;;
70733;SDS011;58320;48.804;9.252;2023-06-04T07:38:50;5.18;;;2.13;;
70733;SDS011;58320;48.804;9.252;2023-06-04T07:41:15;3.77;;;2.00;;
70733;SDS011;58320;48.804;9.252;2023-06-04T07:43:42;4.15;;;1.90;;
70733;SDS011;58320;48.804;9.252;2023-06-04T07:46:08;6.65;;;2.20;;
70733;SDS011;58320;48.804;9.252;2023-06-04T07:48:35;5.43;;;2.40;;
70733;SDS011;58320;48.804;9.252;2023-06-04T07:51:01;4.37;;;2.13;;
70733;SDS011;58320;48.804;9.252;2023-06-04T07:53:29;5.00;;;2.30;;
70733;SDS011;58320;48.804;9.252;2023-06-04T07:55:55;4.75;;;2.28;;
70733;SDS011;58320;48.804;9.252;2023-06-04T07:58:22;4.55;;;2.20;;
70733;SDS011;58320;48.804;9.252;2023-06-04T08:00:48;6.07;;;2.30;;
70733;SDS011;58320;48.804;9.252;2023-06-04T08:03:14;5.83;;;2.20;;
70733;SDS011;58320;48.804;9.252;2023-06-04T08:05:43;6.25;;;2.63;;
70733;SDS011;58320;48.804;9.252;2023-06-04T08:08:09;4.78;;;2.28;;
70733;SDS011;58320;48.804;9.252;2023-06-04T08:10:35;5.27;;;2.20;;
70733;SDS011;58320;48.804;9.252;2023-06-04T08:13:01;4.75;;;2.42;;
70733;SDS011;58320;48.804;9.252;2023-06-04T08:15:27;4.10;;;2.47;;
70733;SDS011;58320;48.804;9.252;2023-06-04T08:17:52;4.70;;;2.40;;
70733;SDS011;58320;48.804;9.252;2023-06-04T08:20:18;4.00;;;2.35;;
70733;SDS011;58320;48.804;9.252;2023-06-04T08:22:44;4.07;;;2.05;;
70733;SDS011;58320;48.804;9.252;2023-06-04T08:25:10;4.43;;;2.00;;
70733;SDS011;58320;48.804;9.252;2023-06-04T08:27:36;5.07;;;2.35;;
70733;SDS011;58320;48.804;9.252;2023-06-04T08:30:02;4.65;;;2.33;;
70733;SDS011;58320;48.804;9.252;2023-06-04T08:32:29;5.55;;;2.60;;
70733;SDS011;58320;48.804;9.252;2023-06-04T08:34:55;6.07;;;2.27;;
70733;SDS011;58320;48.804;9.252;2023-06-04T08:37:21;5.25;;;2.10;;
70733;SDS011;58320;48.804;9.252;2023-06-04T08:39:49;4.38;;;2.40;;
70733;SDS011;58320;48.804;9.252;2023-06-04T08:42:17;4.22;;;2.50;;
70733;SDS011;58320;48.804;9.252;2023-06-04T08:44:53;6.60;;;2.30;;
70733;SDS011;58320;48.804;9.252;2023-06-04T08:47:21;4.80;;;2.20;;
70733;SDS011;58320;48.804;9.252;2023-06-04T08:49:55;4.35;;;2.25;;
70733;SDS011;58320;48.804;9.252;2023-06-04T08:52:25;4.72;;;2.53;;
70733;SDS011;58320;48.804;9.252;2023-06-04T08:54:52;5.72;;;2.40;;
70733;SDS011;58320;48.804;9.252;2023-06-04T08:57:19;5.82;;;2.60;;
70733;SDS011;58320;48.804;9.252;2023-06-04T08:59:48;3.93;;;2.37;;
70733;SDS011;58320;48.804;9.252;2023-06-04T09:02:15;4.50;;;2.40;;
70733;SDS011;58320;48.804;9.252;2023-06-04T09:04:42;5.05;;;2.53;;
70733;SDS011;58320;48.804;9.252;2023-06-04T09:07:10;5.05;;;2.80;;
70733;SDS011;58320;48.804;9.252;2023-06-04T09:09:38;4.95;;;2.65;;
70733;SDS011;58320;48.804;9.252;2023-06-04T09:12:07;5.80;;;2.70;;
70733;SDS011;58320;48.804;9.252;2023-06-04T09:14:36;4.47;;;2.70;;
70733;SDS011;58320;48.804;9.252;2023-06-04T09:17:01;6.50;;;2.55;;
70733;SDS011;58320;48.804;9.252;2023-06-04T09:19:27;5.07;;;2.72;;
70733;SDS011;58320;48.804;9.252;2023-06-04T09:21:56;5.97;;;2.57;;
70733;SDS011;58320;48.804;9.252;2023-06-04T09:24:25;4.78;;;2.38;;
70733;SDS011;58320;48.804;9.252;2023-06-04T09:27:11;9.73;;;2.60;;
70733;SDS011;58320;48.804;9.252;2023-06-04T09:29:51;5.45;;;2.70;;
70733;SDS011;58320;48.804;9.252;2023-06-04T09:32:22;4.70;;;2.22;;
70733;SDS011;58320;48.804;9.252;2023-06-04T09:34:56;5.13;;;2.53;;
70733;SDS011;58320;48.804;9.252;2023-06-04T09:37:51;5.20;;;2.90;;
70733;SDS011;58320;48.804;9.252;2023-06-04T09:40:21;3.88;;;2.25;;
70733;SDS011;58320;48.804;9.252;2023-06-04T09:42:48;6.00;;;2.50;;
70733;SDS011;58320;48.804;9.252;2023-06-04T09:45:31;7.22;;;2.88;;
70733;SDS011;58320;48.804;9.252;2023-06-04T09:48:00;6.07;;;2.72;;
70733;SDS011;58320;48.804;9.252;2023-06-04T09:50:29;4.85;;;2.35;;
70733;SDS011;58320;48.804;9.252;2023-06-04T09:53:12;5.20;;;2.37;;
70733;SDS011;58320;48.804;9.252;2023-06-04T09:55:57;6.10;;;2.77;;
70733;SDS011;58320;48.804;9.252;2023-06-04T09:58:28;5.82;;;3.28;;
70733;SDS011;58320;48.804;9.252;2023-06-04T10:00:56;6.65;;;2.97;;
70733;SDS011;58320;48.804;9.252;2023-06-04T10:03:24;5.68;;;2.70;;
70733;SDS011;58320;48.804;9.252;2023-06-04T10:05:53;7.72;;;2.95;;
70733;SDS011;58320;48.804;9.252;2023-06-04T10:08:22;5.15;;;2.60;;
70733;SDS011;58320;48.804;9.252;2023-06-04T10:10:49;5.47;;;2.80;;
70733;SDS011;58320;48.804;9.252;2023-06-04T10:13:19;5.43;;;3.00;;
70733;SDS011;58320;48.804;9.252;2023-06-04T10:15:48;5.45;;;2.75;;
70733;SDS011;58320;48.804;9.252;2023-06-04T10:18:15;5.53;;;2.83;;
70733;SDS011;58320;48.804;9.252;2023-06-04T10:20:41;6.35;;;3.00;;
70733;SDS011;58320;48.804;9.252;2023-06-04T10:23:07;9.18;;;4.10;;
70733;SDS011;58320;48.804;9.252;2023-06-04T10:25:34;6.07;;;3.80;;
70733;SDS011;58320;48.804;9.252;2023-06-04T10:28:01;7.93;;;2.80;;
70733;SDS011;58320;48.804;9.252;2023-06-04T10:30:31;4.13;;;2.58;;
70733;SDS011;58320;48.804;9.252;2023-06-04T10:32:57;5.45;;;2.80;;
70733;SDS011;58320;48.804;9.252;2023-06-04T10:35:31;6.07;;;2.90;;
70733;SDS011;58320;48.804;9.252;2023-06-04T10:38:07;6.00;;;3.03;;
70733;SDS011;58320;48.804;9.252;2023-06-04T10:40:35;4.40;;;2.50;;
70733;SDS011;58320;48.804;9.252;2023-06-04T10:43:05;4.60;;;2.78;;
70733;SDS011;58320;48.804;9.252;2023-06-04T10:45:33;5.47;;;2.70;;
70733;SDS011;58320;48.804;9.252;2023-06-04T10:48:03;6.37;;;3.10;;
70733;SDS011;58320;48.804;9.252;2023-06-04T10:50:31;4.83;;;2.97;;
70733;SDS011;58320;48.804;9.252;2023-06-04T10:52:58;9.10;;;3.10;;
70733;SDS011;58320;48.804;9.252;2023-06-04T10:55:27;5.10;;;3.25;;
70733;SDS011;58320;48.804;9.252;2023-06-04T10:57:56;7.72;;;3.33;;
70733;SDS011;58320;48.804;9.252;2023-06-04T11:00:36;5.63;;;3.30;;
70733;SDS011;58320;48.804;9.252;2023-06-04T11:03:06;7.65;;;3.35;;
70733;SDS011;58320;48.804;9.252;2023-06-04T11:05:38;4.70;;;3.10;;
70733;SDS011;58320;48.804;9.252;2023-06-04T11:08:08;6.20;;;3.40;;
70733;SDS011;58320;48.804;9.252;2023-06-04T11:10:36;6.87;;;3.30;;
70733;SDS011;58320;48.804;9.252;2023-06-04T11:13:03;6.25;;;3.35;;
70733;SDS011;58320;48.804;9.252;2023-06-04T11:18:17;5.30;;;3.50;;
70733;SDS011;58320;48.804;9.252;2023-06-04T11:20:45;6.55;;;3.50;;
70733;SDS011;58320;48.804;9.252;2023-06-04T11:23:13;7.50;;;3.38;;
70733;SDS011;58320;48.804;9.252;2023-06-04T11:25:40;5.25;;;3.30;;
70733;SDS011;58320;48.804;9.252;2023-06-04T11:28:16;5.00;;;3.22;;
70733;SDS011;58320;48.804;9.252;2023-06-04T11:30:43;6.65;;;3.00;;
70733;SDS011;58320;48.804;9.252;2023-06-04T11:33:09;5.30;;;3.30;;
70733;SDS011;58320;48.804;9.252;2023-06-04T11:35:42;6.67;;;2.73;;
70733;SDS011;58320;48.804;9.252;2023-06-04T11:38:08;7.75;;;3.08;;
70733;SDS011;58320;48.804;9.252;2023-06-04T11:40:35;7.72;;;2.83;;
70733;SDS011;58320;48.804;9.252;2023-06-04T11:43:01;6.45;;;3.38;;
70733;SDS011;58320;48.804;9.252;2023-06-04T11:45:27;5.37;;;3.03;;
70733;SDS011;58320;48.804;9.252;2023-06-04T11:47:55;6.13;;;3.20;;
70733;SDS011;58320;48.804;9.252;2023-06-04T11:50:23;5.82;;;2.83;;
70733;SDS011;58320;48.804;9.252;2023-06-04T11:52:52;8.02;;;3.20;;
70733;SDS011;58320;48.804;9.252;2023-06-04T11:55:18;5.15;;;2.72;;
70733;SDS011;58320;48.804;9.252;2023-06-04T11:57:48;5.07;;;3.13;;
70733;SDS011;58320;48.804;9.252;2023-06-04T12:00:15;5.47;;;3.03;;
70733;SDS011;58320;48.804;9.252;2023-06-04T12:02:52;4.88;;;3.08;;
70733;SDS011;58320;48.804;9.252;2023-06-04T12:05:20;4.97;;;3.03;;
70733;SDS011;58320;48.804;9.252;2023-06-04T12:07:48;5.80;;;3.10;;
70733;SDS011;58320;48.804;9.252;2023-06-04T12:10:17;7.13;;;3.47;;
70733;SDS011;58320;48.804;9.252;2023-06-04T12:12:45;4.90;;;2.97;;
70733;SDS011;58320;48.804;9.252;2023-06-04T12:15:12;7.80;;;3.47;;
70733;SDS011;58320;48.804;9.252;2023-06-04T12:17:50;4.60;;;3.17;;
70733;SDS011;58320;48.804;9.252;2023-06-04T12:20:17;6.43;;;3.15;;
70733;SDS011;58320;48.804;9.252;2023-06-04T12:23:02;6.65;;;3.70;;
70733;SDS011;58320;48.804;9.252;2023-06-04T12:25:32;6.15;;;3.45;;
70733;SDS011;58320;48.804;9.252;2023-06-04T12:27:59;6.75;;;3.50;;
70733;SDS011;58320;48.804;9.252;2023-06-04T12:30:38;4.93;;;3.50;;
70733;SDS011;58320;48.804;9.252;2023-06-04T12:33:04;6.00;;;3.60;;
70733;SDS011;58320;48.804;9.252;2023-06-04T12:35:30;7.40;;;3.90;;
70733;SDS011;58320;48.804;9.252;2023-06-04T12:37:56;5.50;;;3.80;;
70733;SDS011;58320;48.804;9.252;2023-06-04T12:40:22;4.75;;;3.20;;
70733;SDS011;58320;48.804;9.252;2023-06-04T12:42:51;5.90;;;3.85;;
70733;SDS011;58320;48.804;9.252;2023-06-04T12:45:17;4.87;;;3.40;;
70733;SDS011;58320;48.804;9.252;2023-06-04T12:47:43;7.50;;;3.70;;
70733;SDS011;58320;48.804;9.252;2023-06-04T12:50:09;4.63;;;3.30;;
70733;SDS011;58320;48.804;9.252;2023-06-04T12:52:35;5.63;;;3.67;;
70733;SDS011;58320;48.804;9.252;2023-06-04T12:55:01;6.45;;;4.00;;
70733;SDS011;58320;48.804;9.252;2023-06-04T12:57:27;5.25;;;3.20;;
70733;SDS011;58320;48.804;9.252;2023-06-04T12:59:52;5.30;;;3.30;;
70733;SDS011;58320;48.804;9.252;2023-06-04T13:02:18;5.13;;;3.17;;
70733;SDS011;58320;48.804;9.252;2023-06-04T13:04:44;6.97;;;3.30;;
70733;SDS011;58320;48.804;9.252;2023-06-04T13:07:11;7.22;;;3.60;;
70733;SDS011;58320;48.804;9.252;2023-06-04T13:09:37;7.03;;;3.70;;
70733;SDS011;58320;48.804;9.252;2023-06-04T13:12:03;5.90;;;3.47;;
70733;SDS011;58320;48.804;9.252;2023-06-04T13:14:30;6.13;;;3.50;;
70733;SDS011;58320;48.804;9.252;2023-06-04T13:16:58;5.17;;;3.10;;
70733;SDS011;58320;48.804;9.252;2023-06-04T13:19:25;5.80;;;3.53;;
70733;SDS011;58320;48.804;9.252;2023-06-04T13:21:50;6.57;;;3.47;;
70733;SDS011;58320;48.804;9.252;2023-06-04T13:24:16;5.80;;;3.30;;
70733;SDS011;58320;48.804;9.252;2023-06-04T13:26:42;4.67;;;3.07;;
70733;SDS011;58320;48.804;9.252;2023-06-04T13:29:08;7.57;;;3.30;;
70733;SDS011;58320;48.804;9.252;2023-06-04T13:31:34;6.22;;;3.58;;
70733;SDS011;58320;48.804;9.252;2023-06-04T13:33:59;5.17;;;3.20;;
70733;SDS011;58320;48.804;9.252;2023-06-04T13:36:25;6.22;;;3.33;;
70733;SDS011;58320;48.804;9.252;2023-06-04T13:38:51;4.72;;;3.30;;
70733;SDS011;58320;48.804;9.252;2023-06-04T13:41:19;5.23;;;3.13;;
70733;SDS011;58320;48.804;9.252;2023-06-04T13:43:46;4.20;;;3.03;;
70733;SDS011;58320;48.804;9.252;2023-06-04T13:46:11;5.20;;;3.20;;
70733;SDS011;58320;48.804;9.252;2023-06-04T13:48:37;5.47;;;2.95;;
70733;SDS011;58320;48.804;9.252;2023-06-04T13:51:03;5.70;;;3.27;;
70733;SDS011;58320;48.804;9.252;2023-06-04T13:53:29;4.88;;;3.78;;
70733;SDS011;58320;48.804;9.252;2023-06-04T13:55:55;5.32;;;3.42;;
70733;SDS011;58320;48.804;9.252;2023-06-04T13:58:24;5.53;;;3.03;;
70733;SDS011;58320;48.804;9.252;2023-06-04T14:00:51;5.13;;;3.00;;
70733;SDS011;58320;48.804;9.252;2023-06-04T14:03:17;5.60;;;3.22;;
70733;SDS011;58320;48.804;9.252;2023-06-04T14:05:43;6.68;;;3.72;;
70733;SDS011;58320;48.804;9.252;2023-06-04T14:08:09;6.93;;;3.08;;
70733;SDS011;58320;48.804;9.252;2023-06-04T14:10:37;4.27;;;2.70;;
70733;SDS011;58320;48.804;9.252;2023-06-04T14:13:06;4.70;;;3.03;;
70733;SDS011;58320;48.804;9.252;2023-06-04T14:15:32;4.55;;;3.00;;
70733;SDS011;58320;48.804;9.252;2023-06-04T14:17:58;4.45;;;3.10;;
70733;SDS011;58320;48.804;9.252;2023-06-04T14:20:25;6.15;;;3.40;;
70733;SDS011;58320;48.804;9.252;2023-06-04T14:22:50;5.72;;;3.00;;
70733;SDS011;58320;48.804;9.252;2023-06-04T14:25:16;4.80;;;3.30;;
70733;SDS011;58320;48.804;9.252;2023-06-04T14:27:42;4.38;;;3.13;;
70733;SDS011;58320;48.804;9.252;2023-06-04T14:30:08;5.80;;;3.13;;
70733;SDS011;58320;48.804;9.252;2023-06-04T14:32:35;5.37;;;3.17;;
70733;SDS011;58320;48.804;9.252;2023-06-04T14:35:01;4.47;;;3.00;;
70733;SDS011;58320;48.804;9.252;2023-06-04T14:37:27;4.75;;;3.15;;
70733;SDS011;58320;48.804;9.252;2023-06-04T14:39:53;4.25;;;2.95;;
70733;SDS011;58320;48.804;9.252;2023-06-04T14:42:18;4.87;;;3.40;;
70733;SDS011;58320;48.804;9.252;2023-06-04T14:44:45;5.55;;;3.45;;
70733;SDS011;58320;48.804;9.252;2023-06-04T14:47:11;6.30;;;3.17;;
70733;SDS011;58320;48.804;9.252;2023-06-04T14:49:36;4.72;;;3.08;;
70733;SDS011;58320;48.804;9.252;2023-06-04T14:52:02;5.07;;;3.20;;
70733;SDS011;58320;48.804;9.252;2023-06-04T14:54:28;4.60;;;3.25;;
70733;SDS011;58320;48.804;9.252;2023-06-04T14:56:54;9.43;;;3.28;;